createdAt,value
2023-01-06T00:01:43.956Z,96228.84
2023-01-06T00:04:13.490Z,96224.66
2023-01-06T00:06:42.957Z,96227.22
2023-01-06T00:09:13.990Z,96225.00
2023-01-06T00:11:43.370Z,96219.03
2023-01-06T00:14:12.812Z,96222.41
2023-01-06T00:16:42.355Z,96221.13
2023-01-06T00:19:13.138Z,96208.06
2023-01-06T00:21:43.703Z,96216.47
2023-01-06T00:24:14.535Z,96207.59
2023-01-06T00:26:44.082Z,96205.84
2023-01-06T00:29:13.771Z,96203.97
2023-01-06T00:31:43.168Z,96202.91
2023-01-06T00:34:13.003Z,96195.78
2023-01-06T00:36:43.620Z,96197.31
2023-01-06T00:39:15.347Z,96194.25
2023-01-06T00:42:02.904Z,96192.06
2023-01-06T00:44:33.261Z,96193.91
2023-01-06T00:47:03.641Z,96190.91
2023-01-06T00:49:33.403Z,96193.00
2023-01-06T00:52:03.110Z,96192.19
2023-01-06T00:54:33.951Z,96179.88
2023-01-06T00:57:04.614Z,96179.53
2023-01-06T00:59:34.404Z,96178.13
2023-01-06T01:02:05.358Z,96179.53
2023-01-06T01:04:36.457Z,96176.16
2023-01-06T01:07:05.871Z,96172.06
2023-01-06T01:09:36.656Z,96175.91
2023-01-06T01:12:12.459Z,96172.06
2023-01-06T01:14:47.255Z,96167.66
2023-01-06T01:17:20.234Z,96172.09
2023-01-06T01:19:54.273Z,96165.84
2023-01-06T01:22:24.933Z,96159.91
2023-01-06T01:24:55.789Z,96166.19
2023-01-06T01:27:25.276Z,96160.97
2023-01-06T01:29:55.372Z,96165.06
2023-01-06T01:32:25.504Z,96165.63
2023-01-06T01:34:54.966Z,96164.34
2023-01-06T01:37:24.487Z,96160.41
2023-01-06T01:39:55.284Z,96163.44
2023-01-06T01:42:24.728Z,96161.91
2023-01-06T01:45:02.911Z,96170.63
2023-01-06T01:47:49.555Z,96166.22
2023-01-06T01:50:32.644Z,96167.13
2023-01-06T01:53:08.113Z,96168.50
2023-01-06T01:55:41.160Z,96160.81
2023-01-06T01:58:21.956Z,96165.47
2023-01-06T02:00:53.280Z,96170.69
2023-01-06T02:03:25.650Z,96167.75
2023-01-06T02:06:00.722Z,96169.91
2023-01-06T02:08:41.512Z,96171.31
2023-01-06T02:11:13.160Z,96157.06
2023-01-06T02:13:47.423Z,96160.75
2023-01-06T02:16:34.463Z,96161.31
2023-01-06T02:19:21.456Z,96152.00
2023-01-06T02:22:20.207Z,96151.19
2023-01-06T02:25:39.296Z,96142.34
2023-01-06T02:28:42.203Z,96139.75
2023-01-06T02:31:45.178Z,96135.31
2023-01-06T02:34:29.017Z,96129.38
2023-01-06T02:37:06.768Z,96124.47
2023-01-06T02:39:50.618Z,96124.59
2023-01-06T02:42:30.424Z,96123.91
2023-01-06T02:45:10.219Z,96122.22
2023-01-06T02:47:57.162Z,96127.06
2023-01-06T02:50:39.993Z,96128.47
2023-01-06T02:53:22.407Z,96128.75
2023-01-06T02:55:55.536Z,96120.63
2023-01-06T02:58:31.043Z,96115.59
2023-01-06T03:01:09.666Z,96117.25
2023-01-06T03:03:47.801Z,96120.94
2023-01-06T03:06:26.518Z,96117.06
2023-01-06T03:08:59.185Z,96111.78
2023-01-06T03:11:31.989Z,96114.72
2023-01-06T03:14:11.643Z,96103.31
2023-01-06T03:16:41.625Z,96103.38
2023-01-06T03:19:12.554Z,96102.97
2023-01-06T03:21:45.688Z,96095.41
2023-01-06T03:24:16.769Z,96097.69
2023-01-06T03:26:51.078Z,96101.22
2023-01-06T03:29:22.372Z,96095.31
2023-01-06T03:32:03.363Z,96095.94
2023-01-06T03:35:10.544Z,96100.88
2023-01-06T03:37:53.650Z,96107.66
2023-01-06T03:40:34.605Z,96102.97
2023-01-06T03:43:16.176Z,96094.81
2023-01-06T03:46:00.006Z,96105.53
2023-01-06T03:48:56.234Z,96107.78
2023-01-06T03:51:47.811Z,96112.34
2023-01-06T03:54:38.424Z,96109.28
2023-01-06T03:57:14.279Z,96111.94
2023-01-06T03:59:50.832Z,96107.84
2023-01-06T04:02:22.426Z,96110.50
2023-01-06T04:05:13.319Z,96110.94
2023-01-06T04:07:46.830Z,96107.66
2023-01-06T04:10:21.830Z,96110.31
2023-01-06T04:12:52.942Z,96115.44
2023-01-06T04:15:29.805Z,96118.78
2023-01-06T04:18:01.423Z,96118.53
2023-01-06T04:20:34.069Z,96129.16
2023-01-06T04:23:17.051Z,96129.41
2023-01-06T04:25:47.303Z,96130.25
2023-01-06T04:28:20.349Z,96128.63
2023-01-06T04:30:52.586Z,96124.72
2023-01-06T04:33:22.137Z,96128.19
2023-01-06T04:35:53.109Z,96121.25
2023-01-06T04:38:25.806Z,96114.88
2023-01-06T04:40:56.308Z,96117.34
2023-01-06T04:43:25.756Z,96114.69
2023-01-06T04:45:55.266Z,96124.72
2023-01-06T04:48:24.706Z,96115.72
2023-01-06T04:51:02.772Z,96107.97
2023-01-06T04:53:35.844Z,96108.00
2023-01-06T04:56:08.533Z,96118.69
2023-01-06T04:58:38.848Z,96117.28
2023-01-06T05:01:12.455Z,96108.09
2023-01-06T05:03:42.935Z,96123.47
2023-01-06T05:06:13.695Z,96121.63
2023-01-06T05:08:46.746Z,96120.22
2023-01-06T05:11:20.242Z,96125.16
2023-01-06T05:13:50.410Z,96130.84
2023-01-06T05:16:25.141Z,96126.78
2023-01-06T05:18:56.414Z,96135.78
2023-01-06T05:21:30.874Z,96133.13
2023-01-06T05:24:02.978Z,96133.34
2023-01-06T05:26:32.465Z,96133.94
2023-01-06T05:29:01.894Z,96123.69
2023-01-06T05:31:31.374Z,96119.78
2023-01-06T05:34:00.802Z,96116.28
2023-01-06T05:36:30.289Z,96116.66
2023-01-06T05:38:59.684Z,96119.31
2023-01-06T05:41:30.430Z,96117.06
2023-01-06T05:43:59.959Z,96105.78
2023-01-06T05:46:29.349Z,96113.75
2023-01-06T05:49:00.404Z,96111.69
2023-01-06T05:51:30.247Z,96103.28
2023-01-06T05:53:59.687Z,96108.00
2023-01-06T05:56:30.697Z,96105.34
2023-01-06T05:59:00.158Z,96106.59
2023-01-06T06:01:33.039Z,96101.28
2023-01-06T06:04:02.509Z,96106.63
2023-01-06T06:06:32.151Z,96111.94
2023-01-06T06:09:02.362Z,96110.53
2023-01-06T06:11:33.525Z,96112.63
2023-01-06T06:14:02.860Z,96116.94
2023-01-06T06:16:32.282Z,96114.06
2023-01-06T06:19:01.718Z,96113.06
2023-01-06T06:21:32.757Z,96118.78
2023-01-06T06:24:02.207Z,96112.03
2023-01-06T06:26:33.362Z,96115.94
2023-01-06T06:29:02.950Z,96119.84
2023-01-06T06:31:32.434Z,96113.09
2023-01-06T06:34:03.980Z,96115.13
2023-01-06T06:36:33.797Z,96117.19
2023-01-06T06:39:04.693Z,96113.69
2023-01-06T06:41:35.619Z,96106.97
2023-01-06T06:44:05.696Z,96115.16
2023-01-06T06:46:35.208Z,96116.78
2023-01-06T06:49:04.960Z,96113.31
2023-01-06T06:51:35.262Z,96116.16
2023-01-06T06:54:06.566Z,96116.19
2023-01-06T06:56:37.296Z,96112.28
2023-01-06T06:59:07.065Z,96112.28
2023-01-06T07:01:36.668Z,96105.94
2023-01-06T07:04:06.593Z,96107.97
2023-01-06T07:06:36.626Z,96107.97
2023-01-06T07:09:06.807Z,96104.28
2023-01-06T07:11:37.614Z,96107.16
2023-01-06T07:14:07.022Z,96110.03
2023-01-06T07:16:36.484Z,96115.09
2023-01-06T07:19:05.937Z,96121.28
2023-01-06T07:21:35.311Z,96110.44
2023-01-06T07:24:05.336Z,96117.59
2023-01-06T07:26:34.669Z,96124.97
2023-01-06T07:29:05.400Z,96113.31
2023-01-06T07:31:34.919Z,96108.63
2023-01-06T07:34:04.345Z,96107.19
2023-01-06T07:36:33.829Z,96101.47
2023-01-06T07:39:03.394Z,96102.09
2023-01-06T07:41:33.295Z,96098.16
2023-01-06T07:44:05.020Z,96102.47
2023-01-06T07:46:34.365Z,96096.13
2023-01-06T07:49:03.792Z,96089.78
2023-01-06T07:51:33.277Z,96093.25
2023-01-06T07:54:03.146Z,96094.91
2023-01-06T07:56:32.541Z,96090.81
2023-01-06T07:59:07.072Z,96091.22
2023-01-06T08:01:36.559Z,96087.28
2023-01-06T08:04:06.357Z,96085.44
2023-01-06T08:06:35.765Z,96093.59
2023-01-06T08:09:05.448Z,96100.75
2023-01-06T08:11:35.187Z,96104.59
2023-01-06T08:14:11.202Z,96102.97
2023-01-06T08:16:42.395Z,96103.75
2023-01-06T08:19:11.836Z,96107.84
2023-01-06T08:21:41.208Z,96098.19
2023-01-06T08:24:10.953Z,96086.91
2023-01-06T08:26:40.710Z,96082.16
2023-01-06T08:29:11.372Z,96074.41
2023-01-06T08:31:40.999Z,96071.31
2023-01-06T08:34:11.464Z,96075.81
2023-01-06T08:36:41.840Z,96077.44
2023-01-06T08:39:12.817Z,96085.41
2023-01-06T08:41:43.164Z,96086.13
2023-01-06T08:44:14.019Z,96092.63
2023-01-06T08:46:43.520Z,96098.09
2023-01-06T08:49:13.068Z,96090.88
2023-01-06T08:51:42.542Z,96096.56
2023-01-06T08:54:12.066Z,96096.66
2023-01-06T08:56:43.403Z,96096.63
2023-01-06T08:59:17.930Z,96094.81
2023-01-06T09:01:47.525Z,96096.13
2023-01-06T09:04:17.169Z,96103.78
2023-01-06T09:06:47.327Z,96097.50
2023-01-06T09:09:16.825Z,96096.53
2023-01-06T09:11:47.679Z,96107.75
2023-01-06T09:14:18.474Z,96112.34
2023-01-06T09:16:48.721Z,96122.50
2023-01-06T09:19:20.447Z,96124.94
2023-01-06T09:21:49.851Z,96132.19
2023-01-06T09:24:19.512Z,96137.69
2023-01-06T09:26:49.000Z,96139.28
2023-01-06T09:29:21.319Z,96135.53
2023-01-06T09:31:50.818Z,96145.19
2023-01-06T09:34:20.269Z,96145.25
2023-01-06T09:36:49.749Z,96143.75
2023-01-06T09:39:19.590Z,96144.47
2023-01-06T09:42:11.237Z,96147.97
2023-01-06T09:44:49.669Z,96153.00
2023-01-06T09:47:26.316Z,96155.00
2023-01-06T09:50:02.418Z,96154.19
2023-01-06T09:52:39.011Z,96154.81
2023-01-06T09:55:16.667Z,96161.31
2023-01-06T09:57:52.890Z,96165.88
2023-01-06T10:00:36.762Z,96166.91
2023-01-06T10:03:07.171Z,96158.78
2023-01-06T10:05:55.437Z,96157.69
2023-01-06T10:08:39.228Z,96157.66
2023-01-06T10:11:16.489Z,96145.84
2023-01-06T10:14:10.668Z,96144.50
2023-01-06T10:17:05.570Z,96138.56
2023-01-06T10:19:59.766Z,96135.31
2023-01-06T10:22:43.969Z,96135.84
2023-01-06T10:25:21.124Z,96138.94
2023-01-06T10:27:54.880Z,96127.88
2023-01-06T10:30:43.800Z,96134.38
2023-01-06T10:35:58.980Z,96134.94
2023-01-06T10:38:35.339Z,96137.31
2023-01-06T10:41:20.972Z,96146.56
2023-01-06T10:43:50.493Z,96146.81
2023-01-06T10:46:19.994Z,96146.19
2023-01-06T10:48:52.137Z,96146.47
2023-01-06T10:51:38.081Z,96147.53
2023-01-06T10:54:13.263Z,96139.34
2023-01-06T10:56:51.629Z,96152.75
2023-01-06T10:59:21.160Z,96149.63
2023-01-06T11:01:54.167Z,96158.22
2023-01-06T11:04:27.747Z,96151.00
2023-01-06T11:07:01.852Z,96154.06
2023-01-06T11:09:34.896Z,96169.47
2023-01-06T11:12:14.453Z,96149.88
2023-01-06T11:14:44.691Z,96141.75
2023-01-06T11:17:17.453Z,96149.31
2023-01-06T11:20:06.808Z,96151.84
2023-01-06T11:22:40.053Z,96147.88
2023-01-06T11:25:30.152Z,96136.00
2023-01-06T11:28:20.115Z,96134.47
2023-01-06T11:30:54.994Z,96130.97
2023-01-06T11:33:28.387Z,96131.09
2023-01-06T11:36:03.990Z,96130.94
2023-01-06T11:38:41.977Z,96119.34
2023-01-06T11:41:13.811Z,96117.06
2023-01-06T11:43:47.273Z,96109.16
2023-01-06T11:46:25.476Z,96100.63
2023-01-06T11:49:03.359Z,96091.78
2023-01-06T11:51:49.474Z,96097.97
2023-01-06T11:54:33.806Z,96101.13
2023-01-06T11:57:29.057Z,96098.66
2023-01-06T12:00:39.786Z,96088.59
2023-01-06T12:03:22.383Z,96078.22
2023-01-06T12:06:00.047Z,96078.63
2023-01-06T12:08:39.840Z,96068.28
2023-01-06T12:11:17.971Z,96073.75
2023-01-06T12:14:08.354Z,96069.53
2023-01-06T12:16:49.289Z,96069.91
2023-01-06T12:19:28.241Z,96068.34
2023-01-06T12:21:58.775Z,96068.41
2023-01-06T12:24:33.199Z,96076.53
2023-01-06T12:27:06.053Z,96073.47
2023-01-06T12:29:36.298Z,96063.28
2023-01-06T12:32:16.243Z,96058.91
2023-01-06T12:34:50.872Z,96064.66
2023-01-06T12:37:32.949Z,96062.38
2023-01-06T12:40:14.999Z,96069.84
2023-01-06T12:42:54.431Z,96066.84
2023-01-06T12:45:36.349Z,96067.81
2023-01-06T12:48:19.634Z,96071.25
2023-01-06T12:50:55.917Z,96068.97
2023-01-06T12:53:30.070Z,96063.22
2023-01-06T12:56:27.147Z,96068.16
2023-01-06T12:59:13.652Z,96075.09
2023-01-06T13:01:52.418Z,96070.84
2023-01-06T13:05:10.072Z,96075.16
2023-01-06T13:07:51.411Z,96086.78
2023-01-06T13:10:32.662Z,96078.44
2023-01-06T13:13:35.722Z,96071.09
2023-01-06T13:16:18.831Z,96078.09
2023-01-06T13:19:07.111Z,96077.41
2023-01-06T13:21:38.179Z,96080.34
2023-01-06T13:24:34.491Z,96085.47
2023-01-06T13:28:01.011Z,96070.59
2023-01-06T13:31:21.158Z,96064.47
2023-01-06T13:34:28.978Z,96064.41
2023-01-06T13:37:30.068Z,96070.47
2023-01-06T13:40:04.414Z,96070.66
2023-01-06T13:42:41.496Z,96075.66
2023-01-06T13:45:20.538Z,96081.44
2023-01-06T13:47:52.338Z,96077.31
2023-01-06T13:50:23.105Z,96079.19
2023-01-06T13:52:53.467Z,96085.38
2023-01-06T13:55:30.265Z,96086.84
2023-01-06T13:58:38.786Z,96084.41
2023-01-06T14:01:13.848Z,96090.09
2023-01-06T14:03:45.482Z,96092.97
2023-01-06T14:06:46.960Z,96086.16
2023-01-06T14:09:19.883Z,96095.75
2023-01-06T14:11:49.797Z,96086.47
2023-01-06T14:14:28.277Z,96088.00
2023-01-06T14:16:59.104Z,96083.78
2023-01-06T14:19:36.177Z,96086.72
2023-01-06T14:22:19.191Z,96086.47
2023-01-06T14:24:53.343Z,96085.97
2023-01-06T14:28:27.358Z,96080.03
2023-01-06T14:31:48.951Z,96079.63
2023-01-06T14:34:20.362Z,96073.47
2023-01-06T14:36:53.161Z,96074.09
2023-01-06T14:39:27.834Z,96077.03
2023-01-06T14:42:06.216Z,96075.09
2023-01-06T14:44:46.547Z,96076.38
2023-01-06T14:47:28.021Z,96075.81
2023-01-06T14:50:03.736Z,96076.53
2023-01-06T14:52:39.624Z,96069.63
2023-01-06T14:55:18.127Z,96069.16
2023-01-06T14:57:49.224Z,96069.06
2023-01-06T15:00:24.955Z,96069.78
2023-01-06T15:03:00.252Z,96068.75
2023-01-06T15:05:32.884Z,96065.19
2023-01-06T15:08:08.242Z,96066.72
2023-01-06T15:10:41.665Z,96075.34
2023-01-06T15:13:24.427Z,96076.09
2023-01-06T15:15:56.103Z,96074.22
2023-01-06T15:18:26.757Z,96077.53
2023-01-06T15:20:57.299Z,96075.59
2023-01-06T15:23:28.512Z,96078.53
2023-01-06T15:25:58.271Z,96072.50
2023-01-06T15:28:30.963Z,96069.16
2023-01-06T15:31:03.393Z,96079.16
2023-01-06T15:33:40.473Z,96079.91
2023-01-06T15:36:13.419Z,96086.16
2023-01-06T15:38:44.775Z,96090.63
2023-01-06T15:41:32.523Z,96088.75
2023-01-06T15:44:23.707Z,96090.81
2023-01-06T15:46:59.118Z,96087.47
2023-01-06T15:49:32.918Z,96093.41
2023-01-06T15:52:07.924Z,96089.81
2023-01-06T15:54:45.031Z,96093.19
2023-01-06T15:57:17.220Z,96089.25
2023-01-06T15:59:57.272Z,96095.88
2023-01-06T16:02:30.941Z,96098.34
2023-01-06T16:05:02.230Z,96107.66
2023-01-06T16:07:41.832Z,96100.41
2023-01-06T16:10:36.830Z,96094.16
2023-01-06T16:13:29.063Z,96094.88
2023-01-06T16:16:03.450Z,96104.72
2023-01-06T16:18:36.415Z,96101.63
2023-01-06T16:21:23.089Z,96096.25
2023-01-06T16:23:55.717Z,96094.72
2023-01-06T16:26:30.657Z,96101.78
2023-01-06T16:29:03.619Z,96111.38
2023-01-06T16:31:36.300Z,96112.31
2023-01-06T16:34:28.680Z,96104.84
2023-01-06T16:37:00.610Z,96116.97
2023-01-06T16:39:30.102Z,96111.47
2023-01-06T16:42:46.277Z,96115.34
2023-01-06T16:45:27.417Z,96120.03
2023-01-06T16:47:57.621Z,96124.19
2023-01-06T16:50:34.220Z,96121.50
2023-01-06T16:53:14.102Z,96131.41
2023-01-06T16:55:44.332Z,96134.19
2023-01-06T16:58:20.699Z,96129.56
2023-01-06T17:00:54.208Z,96121.59
2023-01-06T17:03:28.597Z,96125.81
2023-01-06T17:05:58.231Z,96131.31
2023-01-06T17:08:31.896Z,96133.66
2023-01-06T17:11:07.908Z,96143.44
2023-01-06T17:13:40.666Z,96139.69
2023-01-06T17:16:17.825Z,96134.56
2023-01-06T17:18:53.850Z,96146.47
2023-01-06T17:21:28.709Z,96138.41
2023-01-06T17:24:11.790Z,96137.25
2023-01-06T17:26:49.610Z,96143.44
2023-01-06T17:29:22.260Z,96135.63
2023-01-06T17:31:57.421Z,96146.00
2023-01-06T17:34:33.659Z,96149.97
2023-01-06T17:37:12.297Z,96151.28
2023-01-06T17:39:44.915Z,96159.47
2023-01-06T17:42:32.502Z,96164.03
2023-01-06T17:45:13.864Z,96164.34
2023-01-06T17:47:47.963Z,96164.59
2023-01-06T17:50:30.343Z,96163.78
2023-01-06T17:53:32.654Z,96164.66
2023-01-06T17:56:05.519Z,96165.97
2023-01-06T17:58:40.230Z,96170.75
2023-01-06T18:01:17.942Z,96169.38
2023-01-06T18:03:48.878Z,96172.78
2023-01-06T18:06:30.536Z,96172.19
2023-01-06T18:09:13.554Z,96167.66
2023-01-06T18:11:47.681Z,96170.56
2023-01-06T18:14:30.488Z,96171.03
2023-01-06T18:17:22.856Z,96171.84
2023-01-06T18:19:53.082Z,96173.16
2023-01-06T18:22:25.207Z,96180.81
2023-01-06T18:24:59.696Z,96184.91
2023-01-06T18:27:33.352Z,96179.78
2023-01-06T18:30:22.054Z,96179.66
2023-01-06T18:32:53.384Z,96178.13
2023-01-06T18:35:27.838Z,96180.59
2023-01-06T18:38:03.509Z,96180.59
2023-01-06T18:40:33.186Z,96183.16
2023-01-06T18:43:25.969Z,96176.16
2023-01-06T18:45:59.918Z,96188.50
2023-01-06T18:48:33.957Z,96188.75
2023-01-06T18:51:08.014Z,96176.31
2023-01-06T18:53:43.163Z,96181.09
2023-01-06T18:56:18.803Z,96183.31
2023-01-06T18:58:52.445Z,96182.97
2023-01-06T19:01:27.759Z,96189.84
2023-01-06T19:04:07.109Z,96187.97
2023-01-06T19:06:43.405Z,96190.41
2023-01-06T19:09:28.507Z,96191.69
2023-01-06T19:12:18.194Z,96184.34
2023-01-06T19:14:52.019Z,96185.19
2023-01-06T19:17:30.032Z,96175.75
2023-01-06T19:20:14.752Z,96178.88
2023-01-06T19:22:45.253Z,96185.75
2023-01-06T19:25:30.067Z,96186.34
2023-01-06T19:28:01.368Z,96184.25
2023-01-06T19:30:44.288Z,96184.94
2023-01-06T19:33:38.646Z,96186.22
2023-01-06T19:36:56.877Z,96185.91
2023-01-06T19:39:31.649Z,96178.09
2023-01-06T19:42:18.477Z,96180.06
2023-01-06T19:44:53.845Z,96180.31
2023-01-06T19:47:28.389Z,96181.38
2023-01-06T19:50:14.824Z,96172.41
2023-01-06T19:52:45.725Z,96184.16
2023-01-06T19:55:29.138Z,96178.69
2023-01-06T19:58:00.627Z,96177.75
2023-01-06T20:00:38.796Z,96180.31
2023-01-06T20:03:29.464Z,96173.91
2023-01-06T20:05:59.102Z,96168.56
2023-01-06T20:08:29.950Z,96178.91
2023-01-06T20:10:59.663Z,96174.25
2023-01-06T20:13:29.190Z,96173.66
2023-01-06T20:15:58.673Z,96174.25
2023-01-06T20:18:28.064Z,96167.84
2023-01-06T20:20:57.519Z,96163.78
2023-01-06T20:23:27.011Z,96164.81
2023-01-06T20:25:57.844Z,96166.91
2023-01-06T20:28:27.619Z,96164.81
2023-01-06T20:30:57.115Z,96162.94
2023-01-06T20:33:26.644Z,96167.03
2023-01-06T20:35:56.038Z,96156.31
2023-01-06T20:38:25.600Z,96157.84
2023-01-06T20:40:54.984Z,96157.84
2023-01-06T20:43:25.761Z,96163.78
2023-01-06T20:45:55.229Z,96150.63
2023-01-06T20:48:25.366Z,96150.84
2023-01-06T20:50:54.884Z,96154.00
2023-01-06T20:53:24.453Z,96149.69
2023-01-06T20:55:57.746Z,96154.22
2023-01-06T20:58:28.504Z,96151.44
2023-01-06T21:00:57.933Z,96153.28
2023-01-06T21:03:27.384Z,96155.38
2023-01-06T21:05:56.866Z,96152.13
2023-01-06T21:08:26.273Z,96150.84
2023-01-06T21:10:55.729Z,96152.84
2023-01-06T21:13:25.374Z,96146.91
2023-01-06T21:15:56.138Z,96141.19
2023-01-06T21:18:25.652Z,96147.34
2023-01-06T21:20:55.031Z,96149.09
2023-01-06T21:23:24.581Z,96150.16
2023-01-06T21:25:54.169Z,96139.44
2023-01-06T21:28:23.623Z,96140.84
2023-01-06T21:30:54.284Z,96144.56
2023-01-06T21:33:26.467Z,96138.88
2023-01-06T21:35:59.361Z,96139.09
2023-01-06T21:38:28.847Z,96144.22
2023-01-06T21:41:24.772Z,96134.22
2023-01-06T21:43:54.486Z,96140.38
2023-01-06T21:46:27.052Z,96142.16
2023-01-06T21:48:59.098Z,96146.34
2023-01-06T21:51:28.805Z,96138.50
2023-01-06T21:53:58.247Z,96145.41
2023-01-06T21:56:27.807Z,96142.03
2023-01-06T21:58:58.359Z,96131.44
2023-01-06T22:01:28.055Z,96135.16
2023-01-06T22:03:58.895Z,96139.25
2023-01-06T22:06:29.876Z,96138.19
2023-01-06T22:09:05.116Z,96139.47
2023-01-06T22:11:36.869Z,96140.16
2023-01-06T22:14:07.008Z,96137.25
2023-01-06T22:16:38.575Z,96139.34
2023-01-06T22:19:13.564Z,96140.03
2023-01-06T22:21:45.316Z,96142.72
2023-01-06T22:24:17.438Z,96142.13
2023-01-06T22:26:46.839Z,96148.19
2023-01-06T22:29:16.173Z,96141.66
2023-01-06T22:31:45.612Z,96137.56
2023-01-06T22:34:17.371Z,96137.94
2023-01-06T22:36:46.953Z,96134.13
2023-01-06T22:39:16.298Z,96133.16
2023-01-06T22:41:47.239Z,96129.44
2023-01-06T22:44:16.625Z,96127.25
2023-01-06T22:46:46.071Z,96125.16
2023-01-06T22:49:16.805Z,96125.84
2023-01-06T22:51:46.207Z,96123.53
2023-01-06T22:54:16.021Z,96129.00
2023-01-06T22:56:45.398Z,96128.06
2023-01-06T22:59:14.895Z,96124.44
2023-01-06T23:01:44.407Z,96125.84
2023-01-06T23:04:14.842Z,96125.63
2023-01-06T23:06:46.241Z,96127.34
2023-01-06T23:09:15.797Z,96124.91
2023-01-06T23:11:45.252Z,96126.88
2023-01-06T23:14:14.968Z,96119.13
2023-01-06T23:16:45.647Z,96119.81
2023-01-06T23:19:17.658Z,96120.25
2023-01-06T23:21:48.519Z,96121.31
2023-01-06T23:24:18.067Z,96118.03
2023-01-06T23:26:48.711Z,96119.09
2023-01-06T23:29:18.059Z,96113.16
2023-01-06T23:31:47.868Z,96108.03
2023-01-06T23:34:19.730Z,96112.81
2023-01-06T23:36:50.629Z,96110.94
2023-01-06T23:39:20.372Z,96103.97
2023-01-06T23:41:50.076Z,96105.81
2023-01-06T23:44:21.015Z,96109.53
2023-01-06T23:46:50.589Z,96098.84
2023-01-06T23:49:20.312Z,96100.47
2023-01-06T23:51:51.086Z,96097.81
2023-01-06T23:54:20.549Z,96090.59
2023-01-06T23:56:50.093Z,96088.97
2023-01-06T23:59:19.767Z,96086.88
